Search for airport 
image banner adimage banner adimage banner ad
image banner ad

D86 - Sequoia Field

Located in Visalia, United States

ICAO - D86, IATA -

Data provided by Airmate  

General information

Coordinates: N36°26'53" W119°19'7"
Elevation is 313 feet MSL.
Magnetic variation is 15° East
View others Airports in California

Operational data

Special qualification required
Current time UTC:
Current local time:
Weather at : KVIS - Visalia Muni ( 16 km )
METAR: KVIS 292056Z AUTO 30005KT 10SM CLR 37/14 A2986 RMK AO2 SLP114 T03670144 58020
TAF: KVIS 291729Z 2918/3018 VRB05KT P6SM SKC
View NOTAMs / SUP AIP / TFR affecting this airport [VIEW]
Communications frequencies: [VIEW]

Runways:

RWY identifierQFULength (ft)Width (ft)SurfaceLDA (ft)
13301260ASPH
31301260ASPH

Airport contact information

Address: Visalia United States

Satellite view of D86